sensor_id;sensor_type;location;lat;lon;timestamp;pressure;altitude;pressure_sealevel;temperature;humidity
48077;BME280;33854;57.708;12.008;2023-06-14T00:00:35;101589.19;;;15.23;100.00
48077;BME280;33854;57.708;12.008;2023-06-14T00:03:02;101592.50;;;15.26;100.00
48077;BME280;33854;57.708;12.008;2023-06-14T00:05:29;101598.75;;;15.24;100.00
48077;BME280;33854;57.708;12.008;2023-06-14T00:07:55;101600.41;;;15.09;100.00
48077;BME280;33854;57.708;12.008;2023-06-14T00:10:21;101571.03;;;14.84;100.00
48077;BME280;33854;57.708;12.008;2023-06-14T00:12:46;101604.13;;;15.05;100.00
48077;BME280;33854;57.708;12.008;2023-06-14T00:15:11;101596.47;;;15.01;100.00
48077;BME280;33854;57.708;12.008;2023-06-14T00:17:37;101600.41;;;14.92;100.00
48077;BME280;33854;57.708;12.008;2023-06-14T00:20:04;101601.53;;;14.87;100.00
48077;BME280;33854;57.708;12.008;2023-06-14T00:22:33;101601.53;;;14.87;100.00
48077;BME280;33854;57.708;12.008;2023-06-14T00:24:59;101606.50;;;14.93;100.00
48077;BME280;33854;57.708;12.008;2023-06-14T00:27:25;101604.38;;;14.83;100.00
48077;BME280;33854;57.708;12.008;2023-06-14T00:29:51;101597.69;;;14.76;100.00
48077;BME280;33854;57.708;12.008;2023-06-14T00:32:18;101602.34;;;14.71;100.00
48077;BME280;33854;57.708;12.008;2023-06-14T00:34:43;101603.63;;;14.63;100.00
48077;BME280;33854;57.708;12.008;2023-06-14T00:37:09;101603.06;;;14.56;100.00
48077;BME280;33854;57.708;12.008;2023-06-14T00:39:34;101603.22;;;14.53;100.00
48077;BME280;33854;57.708;12.008;2023-06-14T00:42:00;101604.38;;;14.48;100.00
48077;BME280;33854;57.708;12.008;2023-06-14T00:44:25;101600.88;;;14.47;100.00
48077;BME280;33854;57.708;12.008;2023-06-14T00:46:51;101564.50;;;14.21;100.00
48077;BME280;33854;57.708;12.008;2023-06-14T00:49:18;101599.50;;;14.40;100.00
48077;BME280;33854;57.708;12.008;2023-06-14T00:51:44;101599.66;;;14.37;100.00
48077;BME280;33854;57.708;12.008;2023-06-14T00:54:10;101598.03;;;14.35;100.00
48077;BME280;33854;57.708;12.008;2023-06-14T00:56:36;101600.66;;;14.35;100.00
48077;BME280;33854;57.708;12.008;2023-06-14T00:59:02;101599.03;;;14.31;100.00
48077;BME280;33854;57.708;12.008;2023-06-14T01:01:28;101565.38;;;14.03;100.00
48077;BME280;33854;57.708;12.008;2023-06-14T01:03:54;101603.25;;;14.16;100.00
48077;BME280;33854;57.708;12.008;2023-06-14T01:06:54;101601.00;;;14.08;100.00
48077;BME280;33854;57.708;12.008;2023-06-14T01:14:21;101600.56;;;13.99;100.00
48077;BME280;33854;57.708;12.008;2023-06-14T01:16:47;101548.44;;;13.73;100.00
48077;BME280;33854;57.708;12.008;2023-06-14T01:19:18;101594.69;;;13.94;100.00
48077;BME280;33854;57.708;12.008;2023-06-14T01:21:46;101572.66;;;13.78;100.00
48077;BME280;33854;57.708;12.008;2023-06-14T01:24:16;101573.16;;;13.67;100.00
48077;BME280;33854;57.708;12.008;2023-06-14T01:26:45;101589.69;;;13.69;100.00
48077;BME280;33854;57.708;12.008;2023-06-14T01:29:11;101551.94;;;13.34;100.00
48077;BME280;33854;57.708;12.008;2023-06-14T01:31:41;101554.97;;;13.25;100.00
48077;BME280;33854;57.708;12.008;2023-06-14T01:34:07;101602.13;;;13.45;100.00
48077;BME280;33854;57.708;12.008;2023-06-14T01:36:35;101594.44;;;13.22;100.00
48077;BME280;33854;57.708;12.008;2023-06-14T01:39:02;101598.22;;;13.15;100.00
48077;BME280;33854;57.708;12.008;2023-06-14T01:41:29;101602.91;;;13.07;100.00
48077;BME280;33854;57.708;12.008;2023-06-14T01:43:56;101610.75;;;13.07;100.00
48077;BME280;33854;57.708;12.008;2023-06-14T01:46:22;101617.97;;;13.02;100.00
48077;BME280;33854;57.708;12.008;2023-06-14T01:48:49;101605.59;;;13.05;100.00
48077;BME280;33854;57.708;12.008;2023-06-14T01:51:14;101615.56;;;13.18;100.00
48077;BME280;33854;57.708;12.008;2023-06-14T01:53:40;101575.91;;;13.05;100.00
48077;BME280;33854;57.708;12.008;2023-06-14T01:56:06;101614.31;;;13.26;100.00
48077;BME280;33854;57.708;12.008;2023-06-14T01:58:32;101610.28;;;13.19;100.00
48077;BME280;33854;57.708;12.008;2023-06-14T02:00:58;101606.16;;;13.13;100.00
48077;BME280;33854;57.708;12.008;2023-06-14T02:03:26;101601.16;;;13.07;100.00
48077;BME280;33854;57.708;12.008;2023-06-14T02:05:51;101579.53;;;13.02;100.00
48077;BME280;33854;57.708;12.008;2023-06-14T02:08:17;101559.56;;;13.00;100.00
48077;BME280;33854;57.708;12.008;2023-06-14T02:10:43;101540.91;;;13.06;100.00
48077;BME280;33854;57.708;12.008;2023-06-14T02:13:09;101520.09;;;13.03;100.00
48077;BME280;33854;57.708;12.008;2023-06-14T02:15:34;101509.34;;;12.89;100.00
48077;BME280;33854;57.708;12.008;2023-06-14T02:18:04;101487.84;;;12.82;100.00
48077;BME280;33854;57.708;12.008;2023-06-14T02:20:30;101465.09;;;12.83;100.00
48077;BME280;33854;57.708;12.008;2023-06-14T02:22:56;101441.59;;;12.81;100.00
48077;BME280;33854;57.708;12.008;2023-06-14T02:25:22;101412.88;;;12.80;100.00
48077;BME280;33854;57.708;12.008;2023-06-14T02:27:47;101399.91;;;12.77;100.00
48077;BME280;33854;57.708;12.008;2023-06-14T02:30:13;101348.59;;;12.52;100.00
48077;BME280;33854;57.708;12.008;2023-06-14T02:32:41;101360.06;;;12.69;100.00
48077;BME280;33854;57.708;12.008;2023-06-14T02:35:08;101328.38;;;12.75;100.00
48077;BME280;33854;57.708;12.008;2023-06-14T02:37:34;101294.34;;;12.75;100.00
48077;BME280;33854;57.708;12.008;2023-06-14T02:40:00;101265.59;;;12.73;100.00
48077;BME280;33854;57.708;12.008;2023-06-14T02:42:26;101217.84;;;12.49;100.00
48077;BME280;33854;57.708;12.008;2023-06-14T02:44:51;101221.31;;;12.50;100.00
48077;BME280;33854;57.708;12.008;2023-06-14T02:47:20;101251.53;;;12.76;100.00
48077;BME280;33854;57.708;12.008;2023-06-14T02:49:46;101234.09;;;12.75;100.00
48077;BME280;33854;57.708;12.008;2023-06-14T02:52:14;101247.00;;;12.79;100.00
48077;BME280;33854;57.708;12.008;2023-06-14T02:54:40;101236.72;;;12.75;100.00
48077;BME280;33854;57.708;12.008;2023-06-14T02:57:06;101235.94;;;12.73;100.00
48077;BME280;33854;57.708;12.008;2023-06-14T02:59:33;101224.63;;;12.72;100.00
48077;BME280;33854;57.708;12.008;2023-06-14T03:01:58;101227.31;;;12.71;100.00
48077;BME280;33854;57.708;12.008;2023-06-14T03:04:24;101232.56;;;12.71;100.00
48077;BME280;33854;57.708;12.008;2023-06-14T03:06:51;101235.22;;;12.69;100.00
48077;BME280;33854;57.708;12.008;2023-06-14T03:09:16;101189.47;;;12.40;100.00
48077;BME280;33854;57.708;12.008;2023-06-14T03:11:42;101229.13;;;12.69;100.00
48077;BME280;33854;57.708;12.008;2023-06-14T03:14:07;101176.94;;;12.47;100.00
48077;BME280;33854;57.708;12.008;2023-06-14T03:16:33;101219.75;;;12.65;100.00
48077;BME280;33854;57.708;12.008;2023-06-14T03:18:59;101243.81;;;12.73;100.00
48077;BME280;33854;57.708;12.008;2023-06-14T03:21:25;101278.63;;;12.75;100.00
48077;BME280;33854;57.708;12.008;2023-06-14T03:23:54;101287.28;;;12.77;100.00
48077;BME280;33854;57.708;12.008;2023-06-14T03:26:20;101277.22;;;12.68;100.00
48077;BME280;33854;57.708;12.008;2023-06-14T03:28:47;101269.84;;;12.57;100.00
48077;BME280;33854;57.708;12.008;2023-06-14T03:31:13;101304.03;;;12.73;100.00
48077;BME280;33854;57.708;12.008;2023-06-14T03:33:39;101346.66;;;12.95;100.00
48077;BME280;33854;57.708;12.008;2023-06-14T03:36:06;101351.84;;;12.96;100.00
48077;BME280;33854;57.708;12.008;2023-06-14T03:38:34;101348.81;;;13.05;100.00
48077;BME280;33854;57.708;12.008;2023-06-14T03:41:00;101357.19;;;13.13;100.00
48077;BME280;33854;57.708;12.008;2023-06-14T03:43:26;101358.56;;;13.21;100.00
48077;BME280;33854;57.708;12.008;2023-06-14T03:45:52;101348.09;;;13.21;100.00
48077;BME280;33854;57.708;12.008;2023-06-14T03:48:18;101345.06;;;13.11;100.00
48077;BME280;33854;57.708;12.008;2023-06-14T03:50:43;101339.84;;;13.11;100.00
48077;BME280;33854;57.708;12.008;2023-06-14T03:53:10;101372.44;;;13.41;100.00
48077;BME280;33854;57.708;12.008;2023-06-14T03:55:36;101375.41;;;13.52;100.00
48077;BME280;33854;57.708;12.008;2023-06-14T03:58:03;101374.25;;;13.58;100.00
48077;BME280;33854;57.708;12.008;2023-06-14T04:00:28;101387.84;;;13.66;100.00
48077;BME280;33854;57.708;12.008;2023-06-14T04:02:54;101357.50;;;13.43;100.00
48077;BME280;33854;57.708;12.008;2023-06-14T04:05:20;101395.28;;;13.75;100.00
48077;BME280;33854;57.708;12.008;2023-06-14T04:07:46;101351.50;;;13.58;100.00
48077;BME280;33854;57.708;12.008;2023-06-14T04:10:14;101400.63;;;13.91;100.00
48077;BME280;33854;57.708;12.008;2023-06-14T04:12:40;101401.50;;;13.91;100.00
48077;BME280;33854;57.708;12.008;2023-06-14T04:15:06;101401.34;;;13.94;100.00
48077;BME280;33854;57.708;12.008;2023-06-14T04:17:33;101338.00;;;13.66;100.00
48077;BME280;33854;57.708;12.008;2023-06-14T04:19:59;101388.75;;;14.01;100.00
48077;BME280;33854;57.708;12.008;2023-06-14T04:22:26;101404.81;;;14.12;100.00
48077;BME280;33854;57.708;12.008;2023-06-14T04:24:56;101406.31;;;14.17;100.00
48077;BME280;33854;57.708;12.008;2023-06-14T04:27:22;101407.69;;;14.24;100.00
48077;BME280;33854;57.708;12.008;2023-06-14T04:29:51;101409.16;;;14.30;100.00
48077;BME280;33854;57.708;12.008;2023-06-14T04:32:25;101396.59;;;14.37;100.00
48077;BME280;33854;57.708;12.008;2023-06-14T04:34:55;101385.84;;;14.41;100.00
48077;BME280;33854;57.708;12.008;2023-06-14T04:37:22;101368.91;;;14.47;100.00
48077;BME280;33854;57.708;12.008;2023-06-14T04:39:48;101358.19;;;14.51;100.00
48077;BME280;33854;57.708;12.008;2023-06-14T04:42:15;101343.63;;;14.61;100.00
48077;BME280;33854;57.708;12.008;2023-06-14T04:44:42;101325.00;;;14.66;100.00
48077;BME280;33854;57.708;12.008;2023-06-14T04:47:09;101332.31;;;14.76;100.00
48077;BME280;33854;57.708;12.008;2023-06-14T04:49:35;101282.19;;;14.64;100.00
48077;BME280;33854;57.708;12.008;2023-06-14T04:52:00;101319.88;;;14.96;100.00
48077;BME280;33854;57.708;12.008;2023-06-14T04:54:27;101296.81;;;15.01;100.00
48077;BME280;33854;57.708;12.008;2023-06-14T04:56:53;101305.88;;;15.11;100.00
48077;BME280;33854;57.708;12.008;2023-06-14T04:59:21;101294.94;;;15.18;100.00
48077;BME280;33854;57.708;12.008;2023-06-14T05:01:49;101285.03;;;15.23;100.00
48077;BME280;33854;57.708;12.008;2023-06-14T05:04:18;101290.50;;;15.34;100.00
48077;BME280;33854;57.708;12.008;2023-06-14T05:06:44;101300.59;;;15.42;100.00
48077;BME280;33854;57.708;12.008;2023-06-14T05:09:13;101318.25;;;15.56;100.00
48077;BME280;33854;57.708;12.008;2023-06-14T05:11:40;101296.06;;;15.44;100.00
48077;BME280;33854;57.708;12.008;2023-06-14T05:14:07;101297.19;;;15.56;100.00
48077;BME280;33854;57.708;12.008;2023-06-14T05:16:33;101308.25;;;15.76;100.00
48077;BME280;33854;57.708;12.008;2023-06-14T05:18:58;101301.63;;;15.85;100.00
48077;BME280;33854;57.708;12.008;2023-06-14T05:21:24;101300.16;;;15.95;100.00
48077;BME280;33854;57.708;12.008;2023-06-14T05:23:49;101308.44;;;16.03;100.00
48077;BME280;33854;57.708;12.008;2023-06-14T05:26:16;101300.91;;;16.11;100.00
48077;BME280;33854;57.708;12.008;2023-06-14T05:28:41;101302.25;;;16.18;100.00
48077;BME280;33854;57.708;12.008;2023-06-14T05:31:07;101298.13;;;16.28;100.00
48077;BME280;33854;57.708;12.008;2023-06-14T05:33:32;101287.22;;;16.34;100.00
48077;BME280;33854;57.708;12.008;2023-06-14T05:35:58;101296.34;;;16.43;100.00
48077;BME280;33854;57.708;12.008;2023-06-14T05:38:23;101261.91;;;16.32;100.00
48077;BME280;33854;57.708;12.008;2023-06-14T05:40:49;101289.75;;;16.50;100.00
48077;BME280;33854;57.708;12.008;2023-06-14T05:43:14;101313.56;;;16.77;100.00
48077;BME280;33854;57.708;12.008;2023-06-14T05:45:40;101297.28;;;16.84;100.00
48077;BME280;33854;57.708;12.008;2023-06-14T05:48:05;101257.75;;;16.70;100.00
48077;BME280;33854;57.708;12.008;2023-06-14T05:50:31;101246.00;;;16.76;100.00
48077;BME280;33854;57.708;12.008;2023-06-14T05:52:56;101277.47;;;17.05;100.00
48077;BME280;33854;57.708;12.008;2023-06-14T05:55:22;101292.19;;;17.22;100.00
48077;BME280;33854;57.708;12.008;2023-06-14T05:57:48;101299.97;;;17.38;100.00
48077;BME280;33854;57.708;12.008;2023-06-14T06:00:14;101289.41;;;17.38;100.00
48077;BME280;33854;57.708;12.008;2023-06-14T06:02:44;101294.19;;;17.45;100.00
48077;BME280;33854;57.708;12.008;2023-06-14T06:05:10;101286.44;;;17.56;100.00
48077;BME280;33854;57.708;12.008;2023-06-14T06:07:37;101293.84;;;17.64;100.00
48077;BME280;33854;57.708;12.008;2023-06-14T06:10:03;101291.56;;;17.72;100.00
48077;BME280;33854;57.708;12.008;2023-06-14T06:12:29;101306.47;;;17.86;100.00
48077;BME280;33854;57.708;12.008;2023-06-14T06:14:54;101323.06;;;18.00;100.00
48077;BME280;33854;57.708;12.008;2023-06-14T06:17:20;101334.81;;;18.09;100.00
48077;BME280;33854;57.708;12.008;2023-06-14T06:19:45;101300.25;;;17.99;100.00
48077;BME280;33854;57.708;12.008;2023-06-14T06:22:11;101343.81;;;18.32;100.00
48077;BME280;33854;57.708;12.008;2023-06-14T06:24:37;101365.47;;;18.37;100.00
48077;BME280;33854;57.708;12.008;2023-06-14T06:27:03;101369.41;;;18.44;100.00
48077;BME280;33854;57.708;12.008;2023-06-14T06:29:28;101389.22;;;18.51;100.00
48077;BME280;33854;57.708;12.008;2023-06-14T06:31:54;101399.47;;;18.55;100.00
48077;BME280;33854;57.708;12.008;2023-06-14T06:34:21;101393.97;;;18.58;100.00
48077;BME280;33854;57.708;12.008;2023-06-14T06:36:47;101413.94;;;18.75;100.00
48077;BME280;33854;57.708;12.008;2023-06-14T06:39:12;101438.38;;;18.91;100.00
48077;BME280;33854;57.708;12.008;2023-06-14T06:41:40;101472.13;;;19.00;100.00
48077;BME280;33854;57.708;12.008;2023-06-14T06:44:06;101479.63;;;19.06;100.00
48077;BME280;33854;57.708;12.008;2023-06-14T06:46:32;101465.75;;;19.03;100.00
48077;BME280;33854;57.708;12.008;2023-06-14T06:48:58;101497.81;;;19.23;100.00
48077;BME280;33854;57.708;12.008;2023-06-14T06:51:24;101498.88;;;19.33;100.00
48077;BME280;33854;57.708;12.008;2023-06-14T06:53:53;101499.53;;;19.50;100.00
48077;BME280;33854;57.708;12.008;2023-06-14T06:56:19;101514.84;;;19.57;100.00
48077;BME280;33854;57.708;12.008;2023-06-14T06:58:45;101526.41;;;19.56;100.00
48077;BME280;33854;57.708;12.008;2023-06-14T07:01:10;101530.84;;;19.68;100.00
48077;BME280;33854;57.708;12.008;2023-06-14T07:03:37;101506.72;;;19.48;100.00
48077;BME280;33854;57.708;12.008;2023-06-14T07:06:02;101546.25;;;19.87;100.00
48077;BME280;33854;57.708;12.008;2023-06-14T07:08:28;101549.72;;;20.00;100.00
48077;BME280;33854;57.708;12.008;2023-06-14T07:10:54;101529.06;;;19.92;100.00
48077;BME280;33854;57.708;12.008;2023-06-14T07:13:19;101564.03;;;20.21;100.00
48077;BME280;33854;57.708;12.008;2023-06-14T07:15:45;101581.13;;;20.30;100.00
48077;BME280;33854;57.708;12.008;2023-06-14T07:18:11;101558.66;;;20.23;100.00
48077;BME280;33854;57.708;12.008;2023-06-14T07:20:36;101599.19;;;20.49;100.00
48077;BME280;33854;57.708;12.008;2023-06-14T07:23:03;101589.56;;;20.59;100.00
48077;BME280;33854;57.708;12.008;2023-06-14T07:25:29;101608.94;;;20.72;100.00
48077;BME280;33854;57.708;12.008;2023-06-14T07:27:54;101618.50;;;20.85;100.00
48077;BME280;33854;57.708;12.008;2023-06-14T07:30:20;101632.03;;;20.93;100.00
48077;BME280;33854;57.708;12.008;2023-06-14T07:32:46;101635.09;;;21.00;100.00
48077;BME280;33854;57.708;12.008;2023-06-14T07:35:12;101627.47;;;20.95;100.00
48077;BME280;33854;57.708;12.008;2023-06-14T07:37:37;101661.25;;;21.17;100.00
48077;BME280;33854;57.708;12.008;2023-06-14T07:40:03;101667.50;;;21.16;100.00
48077;BME280;33854;57.708;12.008;2023-06-14T07:42:35;101685.88;;;21.30;100.00
48077;BME280;33854;57.708;12.008;2023-06-14T07:45:04;101713.09;;;21.45;100.00
48077;BME280;33854;57.708;12.008;2023-06-14T07:47:29;101687.59;;;21.31;100.00
48077;BME280;33854;57.708;12.008;2023-06-14T07:49:55;101721.97;;;21.33;100.00
48077;BME280;33854;57.708;12.008;2023-06-14T07:52:20;101729.75;;;21.47;100.00
48077;BME280;33854;57.708;12.008;2023-06-14T07:54:46;101715.38;;;21.49;100.00
48077;BME280;33854;57.708;12.008;2023-06-14T07:57:11;101712.50;;;21.52;100.00
48077;BME280;33854;57.708;12.008;2023-06-14T07:59:37;101673.41;;;21.54;100.00
48077;BME280;33854;57.708;12.008;2023-06-14T08:02:02;101700.88;;;21.88;100.00
48077;BME280;33854;57.708;12.008;2023-06-14T08:04:28;101695.72;;;21.98;100.00
48077;BME280;33854;57.708;12.008;2023-06-14T08:06:53;101693.38;;;22.04;100.00
48077;BME280;33854;57.708;12.008;2023-06-14T08:09:19;101677.81;;;22.11;100.00
48077;BME280;33854;57.708;12.008;2023-06-14T08:11:44;101685.66;;;22.24;100.00
48077;BME280;33854;57.708;12.008;2023-06-14T08:14:10;101693.00;;;22.42;100.00
48077;BME280;33854;57.708;12.008;2023-06-14T08:16:36;101694.69;;;22.54;100.00
48077;BME280;33854;57.708;12.008;2023-06-14T08:19:01;101694.69;;;22.54;100.00
48077;BME280;33854;57.708;12.008;2023-06-14T08:21:27;101665.91;;;22.48;100.00
48077;BME280;33854;57.708;12.008;2023-06-14T08:23:55;101695.00;;;22.83;100.00
48077;BME280;33854;57.708;12.008;2023-06-14T08:26:21;101688.81;;;22.83;100.00
48077;BME280;33854;57.708;12.008;2023-06-14T08:28:47;101684.47;;;22.82;100.00
48077;BME280;33854;57.708;12.008;2023-06-14T08:31:12;101685.66;;;22.89;100.00
48077;BME280;33854;57.708;12.008;2023-06-14T08:33:38;101688.28;;;23.00;100.00
48077;BME280;33854;57.708;12.008;2023-06-14T08:36:04;101697.47;;;23.07;100.00
48077;BME280;33854;57.708;12.008;2023-06-14T08:38:30;101695.69;;;23.17;100.00
48077;BME280;33854;57.708;12.008;2023-06-14T08:40:57;101661.50;;;23.12;100.00
48077;BME280;33854;57.708;12.008;2023-06-14T08:43:23;101685.31;;;23.35;100.00
48077;BME280;33854;57.708;12.008;2023-06-14T08:45:49;101690.94;;;23.52;100.00
48077;BME280;33854;57.708;12.008;2023-06-14T08:48:18;101690.47;;;23.68;100.00
48077;BME280;33854;57.708;12.008;2023-06-14T08:50:46;101683.59;;;23.65;100.00
48077;BME280;33854;57.708;12.008;2023-06-14T08:53:14;101685.03;;;23.69;100.00
48077;BME280;33854;57.708;12.008;2023-06-14T08:55:45;101661.91;;;23.49;100.00
48077;BME280;33854;57.708;12.008;2023-06-14T08:58:10;101682.69;;;23.76;100.00
48077;BME280;33854;57.708;12.008;2023-06-14T09:00:39;101680.56;;;23.79;100.00
48077;BME280;33854;57.708;12.008;2023-06-14T09:03:08;101676.00;;;23.91;100.00
48077;BME280;33854;57.708;12.008;2023-06-14T09:05:38;101652.50;;;23.75;100.00
48077;BME280;33854;57.708;12.008;2023-06-14T09:08:04;101671.25;;;23.95;100.00
48077;BME280;33854;57.708;12.008;2023-06-14T09:10:31;101660.59;;;23.95;100.00
48077;BME280;33854;57.708;12.008;2023-06-14T09:13:00;101680.78;;;24.18;100.00
48077;BME280;33854;57.708;12.008;2023-06-14T09:15:25;101670.00;;;24.29;100.00
48077;BME280;33854;57.708;12.008;2023-06-14T09:17:51;101653.16;;;24.28;93.18
48077;BME280;33854;57.708;12.008;2023-06-14T09:20:16;101673.41;;;24.41;95.08
48077;BME280;33854;57.708;12.008;2023-06-14T09:22:45;101678.63;;;24.42;97.35
48077;BME280;33854;57.708;12.008;2023-06-14T09:25:11;101666.00;;;24.14;94.32
48077;BME280;33854;57.708;12.008;2023-06-14T09:27:40;101647.34;;;24.14;96.09
48077;BME280;33854;57.708;12.008;2023-06-14T09:30:09;101669.63;;;24.43;99.71
48077;BME280;33854;57.708;12.008;2023-06-14T09:32:38;101666.81;;;24.45;100.00
48077;BME280;33854;57.708;12.008;2023-06-14T09:35:08;101666.09;;;24.43;100.00
48077;BME280;33854;57.708;12.008;2023-06-14T09:37:34;101665.09;;;24.34;100.00
48077;BME280;33854;57.708;12.008;2023-06-14T09:39:59;101671.84;;;24.08;100.00
48077;BME280;33854;57.708;12.008;2023-06-14T09:42:25;101657.13;;;24.04;100.00
48077;BME280;33854;57.708;12.008;2023-06-14T09:44:52;101664.09;;;23.95;100.00
48077;BME280;33854;57.708;12.008;2023-06-14T09:47:19;101658.88;;;24.14;100.00
48077;BME280;33854;57.708;12.008;2023-06-14T09:49:45;101658.34;;;24.00;100.00
48077;BME280;33854;57.708;12.008;2023-06-14T09:52:18;101652.47;;;24.06;100.00
48077;BME280;33854;57.708;12.008;2023-06-14T09:54:44;101674.94;;;23.73;100.00
48077;BME280;33854;57.708;12.008;2023-06-14T09:57:15;101664.28;;;23.73;100.00
48077;BME280;33854;57.708;12.008;2023-06-14T09:59:45;101653.47;;;23.74;100.00
48077;BME280;33854;57.708;12.008;2023-06-14T10:02:25;101648.78;;;23.88;100.00
48077;BME280;33854;57.708;12.008;2023-06-14T10:05:17;101657.06;;;23.85;100.00
48077;BME280;33854;57.708;12.008;2023-06-14T10:07:53;101667.25;;;23.79;100.00
48077;BME280;33854;57.708;12.008;2023-06-14T10:10:21;101670.00;;;23.68;100.00
48077;BME280;33854;57.708;12.008;2023-06-14T10:12:47;101666.22;;;23.71;100.00
48077;BME280;33854;57.708;12.008;2023-06-14T10:15:48;101662.31;;;23.75;100.00
48077;BME280;33854;57.708;12.008;2023-06-14T10:18:21;101659.34;;;23.68;100.00
48077;BME280;33854;57.708;12.008;2023-06-14T10:21:28;101661.72;;;23.41;100.00
48077;BME280;33854;57.708;12.008;2023-06-14T10:24:01;101664.09;;;23.65;100.00
48077;BME280;33854;57.708;12.008;2023-06-14T10:26:28;101622.00;;;23.59;100.00
48077;BME280;33854;57.708;12.008;2023-06-14T10:31:49;101646.41;;;23.94;100.00
48077;BME280;33854;57.708;12.008;2023-06-14T10:34:41;101645.03;;;23.69;100.00
48077;BME280;33854;57.708;12.008;2023-06-14T10:37:11;101650.81;;;24.05;100.00
48077;BME280;33854;57.708;12.008;2023-06-14T10:39:40;101649.13;;;24.04;100.00
48077;BME280;33854;57.708;12.008;2023-06-14T10:42:06;101644.75;;;24.33;100.00
48077;BME280;33854;57.708;12.008;2023-06-14T10:44:37;101652.34;;;24.47;100.00
48077;BME280;33854;57.708;12.008;2023-06-14T10:47:10;101650.84;;;24.64;100.00
48077;BME280;33854;57.708;12.008;2023-06-14T10:52:15;101645.13;;;24.87;100.00
48077;BME280;33854;57.708;12.008;2023-06-14T10:57:48;101649.88;;;25.13;100.00
48077;BME280;33854;57.708;12.008;2023-06-14T11:00:18;101632.16;;;25.21;100.00
48077;BME280;33854;57.708;12.008;2023-06-14T11:05:26;101621.78;;;24.89;100.00
48077;BME280;33854;57.708;12.008;2023-06-14T11:10:49;101619.47;;;25.33;100.00
48077;BME280;33854;57.708;12.008;2023-06-14T11:13:18;101618.75;;;25.50;100.00
48077;BME280;33854;57.708;12.008;2023-06-14T11:15:45;101606.25;;;25.41;98.24
48077;BME280;33854;57.708;12.008;2023-06-14T11:18:15;101612.44;;;25.51;99.11
48077;BME280;33854;57.708;12.008;2023-06-14T11:20:42;101621.88;;;25.36;91.59
48077;BME280;33854;57.708;12.008;2023-06-14T11:23:07;101613.00;;;25.45;87.24
48077;BME280;33854;57.708;12.008;2023-06-14T11:25:33;101578.69;;;25.50;81.78
48077;BME280;33854;57.708;12.008;2023-06-14T11:27:58;101566.03;;;25.42;81.27
48077;BME280;33854;57.708;12.008;2023-06-14T11:30:25;101566.16;;;25.31;78.40
48077;BME280;33854;57.708;12.008;2023-06-14T11:32:51;101597.69;;;25.74;78.01
48077;BME280;33854;57.708;12.008;2023-06-14T11:35:17;101578.22;;;25.91;75.66
48077;BME280;33854;57.708;12.008;2023-06-14T11:37:43;101599.31;;;26.22;75.14
48077;BME280;33854;57.708;12.008;2023-06-14T11:40:13;101594.72;;;25.77;75.48
48077;BME280;33854;57.708;12.008;2023-06-14T11:42:40;101580.19;;;25.89;75.51
48077;BME280;33854;57.708;12.008;2023-06-14T11:45:10;101581.22;;;26.33;76.58
48077;BME280;33854;57.708;12.008;2023-06-14T11:47:38;101595.56;;;26.32;76.33
48077;BME280;33854;57.708;12.008;2023-06-14T11:50:05;101571.25;;;26.61;74.63
48077;BME280;33854;57.708;12.008;2023-06-14T11:52:31;101573.09;;;26.78;75.23
48077;BME280;33854;57.708;12.008;2023-06-14T11:54:57;101586.50;;;27.22;76.25
48077;BME280;33854;57.708;12.008;2023-06-14T11:57:24;101573.78;;;27.75;74.93
48077;BME280;33854;57.708;12.008;2023-06-14T11:59:50;101600.94;;;27.46;75.41
48077;BME280;33854;57.708;12.008;2023-06-14T12:02:17;101573.38;;;27.70;72.51
48077;BME280;33854;57.708;12.008;2023-06-14T12:04:49;101576.59;;;28.15;71.24
48077;BME280;33854;57.708;12.008;2023-06-14T12:07:15;101574.84;;;27.98;67.41
48077;BME280;33854;57.708;12.008;2023-06-14T12:09:43;101573.28;;;28.30;67.20
48077;BME280;33854;57.708;12.008;2023-06-14T12:12:28;101575.13;;;28.37;66.42
48077;BME280;33854;57.708;12.008;2023-06-14T12:14:56;101591.16;;;28.87;65.91
48077;BME280;33854;57.708;12.008;2023-06-14T12:17:22;101547.66;;;28.67;64.42
48077;BME280;33854;57.708;12.008;2023-06-14T12:19:48;101586.94;;;28.84;65.53
48077;BME280;33854;57.708;12.008;2023-06-14T12:22:15;101569.44;;;28.56;65.21
48077;BME280;33854;57.708;12.008;2023-06-14T12:24:45;101567.31;;;28.92;65.01
48077;BME280;33854;57.708;12.008;2023-06-14T12:27:11;101572.69;;;28.84;61.96
48077;BME280;33854;57.708;12.008;2023-06-14T12:29:42;101521.41;;;29.18;60.78
48077;BME280;33854;57.708;12.008;2023-06-14T12:32:10;101562.06;;;29.78;58.60
48077;BME280;33854;57.708;12.008;2023-06-14T12:34:37;101561.56;;;29.74;58.61
48077;BME280;33854;57.708;12.008;2023-06-14T12:37:02;101553.75;;;29.96;56.20
48077;BME280;33854;57.708;12.008;2023-06-14T12:39:29;101553.56;;;29.97;57.29
48077;BME280;33854;57.708;12.008;2023-06-14T12:41:56;101544.56;;;29.82;57.43
48077;BME280;33854;57.708;12.008;2023-06-14T12:44:22;101571.78;;;30.48;51.60
48077;BME280;33854;57.708;12.008;2023-06-14T12:46:47;101571.41;;;30.74;50.13
48077;BME280;33854;57.708;12.008;2023-06-14T12:49:13;101549.31;;;31.16;45.94